sensor_id;sensor_type;location;lat;lon;timestamp;temperature;humidity
17152;DHT22;8691;50.828;4.700;2022-11-11T00:00:26;7.90;99.90
17152;DHT22;8691;50.828;4.700;2022-11-11T00:02:56;7.90;99.90
17152;DHT22;8691;50.828;4.700;2022-11-11T00:05:23;8.00;99.90
17152;DHT22;8691;50.828;4.700;2022-11-11T00:07:54;8.00;99.90
17152;DHT22;8691;50.828;4.700;2022-11-11T00:10:20;8.00;99.90
17152;DHT22;8691;50.828;4.700;2022-11-11T00:12:47;7.90;99.90
17152;DHT22;8691;50.828;4.700;2022-11-11T00:15:14;7.90;99.90
17152;DHT22;8691;50.828;4.700;2022-11-11T00:17:40;7.80;99.90
17152;DHT22;8691;50.828;4.700;2022-11-11T00:20:25;7.80;99.90
17152;DHT22;8691;50.828;4.700;2022-11-11T00:23:22;7.70;99.90
17152;DHT22;8691;50.828;4.700;2022-11-11T00:26:04;7.70;99.90
17152;DHT22;8691;50.828;4.700;2022-11-11T00:28:32;7.80;99.90
17152;DHT22;8691;50.828;4.700;2022-11-11T00:31:07;7.80;99.90
17152;DHT22;8691;50.828;4.700;2022-11-11T00:33:33;7.80;99.90
17152;DHT22;8691;50.828;4.700;2022-11-11T00:36:00;7.80;99.90
17152;DHT22;8691;50.828;4.700;2022-11-11T00:38:28;7.80;99.90
17152;DHT22;8691;50.828;4.700;2022-11-11T00:41:16;7.80;99.90
17152;DHT22;8691;50.828;4.700;2022-11-11T00:43:42;7.80;99.90
17152;DHT22;8691;50.828;4.700;2022-11-11T00:46:09;7.80;99.90
17152;DHT22;8691;50.828;4.700;2022-11-11T00:48:54;7.80;99.90
17152;DHT22;8691;50.828;4.700;2022-11-11T00:51:39;7.80;99.90
17152;DHT22;8691;50.828;4.700;2022-11-11T00:54:06;7.70;99.90
17152;DHT22;8691;50.828;4.700;2022-11-11T00:56:33;7.70;99.90
17152;DHT22;8691;50.828;4.700;2022-11-11T00:58:59;7.70;99.90
17152;DHT22;8691;50.828;4.700;2022-11-11T01:01:29;7.80;99.90
17152;DHT22;8691;50.828;4.700;2022-11-11T01:03:56;7.70;99.90
17152;DHT22;8691;50.828;4.700;2022-11-11T01:06:23;7.70;99.90
17152;DHT22;8691;50.828;4.700;2022-11-11T01:08:50;7.70;99.90
17152;DHT22;8691;50.828;4.700;2022-11-11T01:11:19;7.60;99.90
17152;DHT22;8691;50.828;4.700;2022-11-11T01:13:45;7.60;99.90
17152;DHT22;8691;50.828;4.700;2022-11-11T01:16:13;7.60;99.90
17152;DHT22;8691;50.828;4.700;2022-11-11T01:18:40;7.60;99.90
17152;DHT22;8691;50.828;4.700;2022-11-11T01:21:14;7.60;99.90
17152;DHT22;8691;50.828;4.700;2022-11-11T01:23:40;7.70;99.90
17152;DHT22;8691;50.828;4.700;2022-11-11T01:26:14;7.60;99.90
17152;DHT22;8691;50.828;4.700;2022-11-11T01:28:38;7.60;99.90
17152;DHT22;8691;50.828;4.700;2022-11-11T01:31:07;7.70;99.90
17152;DHT22;8691;50.828;4.700;2022-11-11T01:33:33;7.70;99.90
17152;DHT22;8691;50.828;4.700;2022-11-11T01:36:03;7.70;99.90
17152;DHT22;8691;50.828;4.700;2022-11-11T01:38:30;7.60;99.90
17152;DHT22;8691;50.828;4.700;2022-11-11T01:40:57;7.60;99.90
17152;DHT22;8691;50.828;4.700;2022-11-11T01:43:24;7.60;99.90
17152;DHT22;8691;50.828;4.700;2022-11-11T01:45:55;7.60;99.90
17152;DHT22;8691;50.828;4.700;2022-11-11T01:48:25;7.60;99.90
17152;DHT22;8691;50.828;4.700;2022-11-11T01:51:05;7.60;99.90
17152;DHT22;8691;50.828;4.700;2022-11-11T01:53:32;7.50;99.90
17152;DHT22;8691;50.828;4.700;2022-11-11T01:55:59;7.50;99.90
17152;DHT22;8691;50.828;4.700;2022-11-11T01:58:26;7.50;99.90
17152;DHT22;8691;50.828;4.700;2022-11-11T02:00:53;7.50;99.90
17152;DHT22;8691;50.828;4.700;2022-11-11T02:03:20;7.50;99.90
17152;DHT22;8691;50.828;4.700;2022-11-11T02:05:46;7.50;99.90
17152;DHT22;8691;50.828;4.700;2022-11-11T02:08:25;7.50;99.90
17152;DHT22;8691;50.828;4.700;2022-11-11T02:10:46;7.50;99.90
17152;DHT22;8691;50.828;4.700;2022-11-11T02:13:14;7.50;99.90
17152;DHT22;8691;50.828;4.700;2022-11-11T02:15:58;7.40;99.90
17152;DHT22;8691;50.828;4.700;2022-11-11T02:18:25;7.40;99.90
17152;DHT22;8691;50.828;4.700;2022-11-11T02:20:52;7.40;99.90
17152;DHT22;8691;50.828;4.700;2022-11-11T02:23:27;7.40;99.90
17152;DHT22;8691;50.828;4.700;2022-11-11T02:25:48;7.40;99.90
17152;DHT22;8691;50.828;4.700;2022-11-11T02:28:15;7.30;99.90
17152;DHT22;8691;50.828;4.700;2022-11-11T02:30:42;7.30;99.90
17152;DHT22;8691;50.828;4.700;2022-11-11T02:33:09;7.30;99.90
17152;DHT22;8691;50.828;4.700;2022-11-11T02:35:36;7.30;99.90
17152;DHT22;8691;50.828;4.700;2022-11-11T02:38:04;7.40;99.90
17152;DHT22;8691;50.828;4.700;2022-11-11T02:40:43;7.30;99.90
17152;DHT22;8691;50.828;4.700;2022-11-11T02:43:09;7.40;99.90
17152;DHT22;8691;50.828;4.700;2022-11-11T02:45:35;7.40;99.90
17152;DHT22;8691;50.828;4.700;2022-11-11T02:48:02;7.30;99.90
17152;DHT22;8691;50.828;4.700;2022-11-11T02:50:29;7.30;99.90
17152;DHT22;8691;50.828;4.700;2022-11-11T02:52:55;7.20;99.90
17152;DHT22;8691;50.828;4.700;2022-11-11T02:55:22;7.20;99.90
17152;DHT22;8691;50.828;4.700;2022-11-11T02:57:49;7.20;99.90
17152;DHT22;8691;50.828;4.700;2022-11-11T03:00:16;7.20;99.90
17152;DHT22;8691;50.828;4.700;2022-11-11T03:02:43;7.20;99.90
17152;DHT22;8691;50.828;4.700;2022-11-11T03:05:10;7.10;99.90
17152;DHT22;8691;50.828;4.700;2022-11-11T03:07:37;7.10;99.90
17152;DHT22;8691;50.828;4.700;2022-11-11T03:10:05;7.00;99.90
17152;DHT22;8691;50.828;4.700;2022-11-11T03:12:32;7.00;99.90
17152;DHT22;8691;50.828;4.700;2022-11-11T03:14:58;7.00;99.90
17152;DHT22;8691;50.828;4.700;2022-11-11T03:17:25;6.90;99.90
17152;DHT22;8691;50.828;4.700;2022-11-11T03:20:13;6.90;99.90
17152;DHT22;8691;50.828;4.700;2022-11-11T03:25:27;6.80;99.90
17152;DHT22;8691;50.828;4.700;2022-11-11T03:28:09;6.70;99.90
17152;DHT22;8691;50.828;4.700;2022-11-11T03:30:35;6.70;99.90
17152;DHT22;8691;50.828;4.700;2022-11-11T03:33:02;6.60;99.90
17152;DHT22;8691;50.828;4.700;2022-11-11T03:35:29;6.60;99.90
17152;DHT22;8691;50.828;4.700;2022-11-11T03:37:56;6.50;99.90
17152;DHT22;8691;50.828;4.700;2022-11-11T03:40:42;6.50;99.90
17152;DHT22;8691;50.828;4.700;2022-11-11T03:43:08;6.50;99.90
17152;DHT22;8691;50.828;4.700;2022-11-11T03:45:35;6.40;99.90
17152;DHT22;8691;50.828;4.700;2022-11-11T03:48:02;6.40;99.90
17152;DHT22;8691;50.828;4.700;2022-11-11T03:50:29;6.30;99.90
17152;DHT22;8691;50.828;4.700;2022-11-11T03:52:56;6.30;99.90
17152;DHT22;8691;50.828;4.700;2022-11-11T03:55:22;6.30;99.90
17152;DHT22;8691;50.828;4.700;2022-11-11T03:57:49;6.20;99.90
17152;DHT22;8691;50.828;4.700;2022-11-11T04:00:23;6.20;99.90
17152;DHT22;8691;50.828;4.700;2022-11-11T04:02:49;6.10;99.90
17152;DHT22;8691;50.828;4.700;2022-11-11T04:05:34;6.10;99.90
17152;DHT22;8691;50.828;4.700;2022-11-11T04:08:19;6.00;99.90
17152;DHT22;8691;50.828;4.700;2022-11-11T04:11:11;5.90;99.90
17152;DHT22;8691;50.828;4.700;2022-11-11T04:13:36;5.90;99.90
17152;DHT22;8691;50.828;4.700;2022-11-11T04:16:21;5.90;99.90
17152;DHT22;8691;50.828;4.700;2022-11-11T04:18:48;5.80;99.90
17152;DHT22;8691;50.828;4.700;2022-11-11T04:21:33;5.80;99.90
17152;DHT22;8691;50.828;4.700;2022-11-11T04:24:15;5.80;99.90
17152;DHT22;8691;50.828;4.700;2022-11-11T04:26:59;5.70;99.90
17152;DHT22;8691;50.828;4.700;2022-11-11T04:29:26;5.60;99.90
17152;DHT22;8691;50.828;4.700;2022-11-11T04:31:59;5.60;99.90
17152;DHT22;8691;50.828;4.700;2022-11-11T04:34:41;5.60;99.90
17152;DHT22;8691;50.828;4.700;2022-11-11T04:37:08;5.60;99.90
17152;DHT22;8691;50.828;4.700;2022-11-11T04:39:35;5.50;99.90
17152;DHT22;8691;50.828;4.700;2022-11-11T04:42:20;5.50;99.90
17152;DHT22;8691;50.828;4.700;2022-11-11T04:44:47;5.50;99.90
17152;DHT22;8691;50.828;4.700;2022-11-11T04:47:31;5.40;99.90
17152;DHT22;8691;50.828;4.700;2022-11-11T04:49:58;5.40;99.90
17152;DHT22;8691;50.828;4.700;2022-11-11T04:52:25;5.40;99.90
17152;DHT22;8691;50.828;4.700;2022-11-11T04:54:52;5.40;99.90
17152;DHT22;8691;50.828;4.700;2022-11-11T04:57:40;5.40;99.90
17152;DHT22;8691;50.828;4.700;2022-11-11T05:00:11;5.30;99.90
17152;DHT22;8691;50.828;4.700;2022-11-11T05:02:37;5.30;99.90
17152;DHT22;8691;50.828;4.700;2022-11-11T05:05:22;5.20;99.90
17152;DHT22;8691;50.828;4.700;2022-11-11T05:07:48;5.20;99.90
17152;DHT22;8691;50.828;4.700;2022-11-11T05:10:33;5.20;99.90
17152;DHT22;8691;50.828;4.700;2022-11-11T05:13:00;5.10;99.90
17152;DHT22;8691;50.828;4.700;2022-11-11T05:15:44;5.10;99.90
17152;DHT22;8691;50.828;4.700;2022-11-11T05:18:29;5.10;99.90
17152;DHT22;8691;50.828;4.700;2022-11-11T05:21:15;5.00;99.90
17152;DHT22;8691;50.828;4.700;2022-11-11T05:23:47;5.00;99.90
17152;DHT22;8691;50.828;4.700;2022-11-11T05:26:32;5.00;99.90
17152;DHT22;8691;50.828;4.700;2022-11-11T05:28:59;5.00;99.90
17152;DHT22;8691;50.828;4.700;2022-11-11T05:31:28;5.00;99.90
17152;DHT22;8691;50.828;4.700;2022-11-11T05:33:55;5.00;99.90
17152;DHT22;8691;50.828;4.700;2022-11-11T05:36:22;5.00;99.90
17152;DHT22;8691;50.828;4.700;2022-11-11T05:38:50;5.10;99.90
17152;DHT22;8691;50.828;4.700;2022-11-11T05:41:16;5.00;99.90
17152;DHT22;8691;50.828;4.700;2022-11-11T05:43:43;5.20;99.90
17152;DHT22;8691;50.828;4.700;2022-11-11T05:46:10;5.30;99.90
17152;DHT22;8691;50.828;4.700;2022-11-11T05:48:37;5.30;99.90
17152;DHT22;8691;50.828;4.700;2022-11-11T05:51:04;5.50;99.90
17152;DHT22;8691;50.828;4.700;2022-11-11T05:53:31;5.60;99.90
17152;DHT22;8691;50.828;4.700;2022-11-11T05:55:58;5.80;99.90
17152;DHT22;8691;50.828;4.700;2022-11-11T05:58:26;5.90;99.90
17152;DHT22;8691;50.828;4.700;2022-11-11T06:00:54;6.00;99.90
17152;DHT22;8691;50.828;4.700;2022-11-11T06:03:21;6.00;99.90
17152;DHT22;8691;50.828;4.700;2022-11-11T06:05:48;6.10;99.90
17152;DHT22;8691;50.828;4.700;2022-11-11T06:08:15;6.10;99.90
17152;DHT22;8691;50.828;4.700;2022-11-11T06:10:42;6.10;99.90
17152;DHT22;8691;50.828;4.700;2022-11-11T06:13:08;6.10;99.90
17152;DHT22;8691;50.828;4.700;2022-11-11T06:15:36;6.10;99.90
17152;DHT22;8691;50.828;4.700;2022-11-11T06:18:03;6.10;99.90
17152;DHT22;8691;50.828;4.700;2022-11-11T06:20:29;6.20;99.90
17152;DHT22;8691;50.828;4.700;2022-11-11T06:22:56;6.30;99.90
17152;DHT22;8691;50.828;4.700;2022-11-11T06:25:24;6.30;99.90
17152;DHT22;8691;50.828;4.700;2022-11-11T06:28:07;6.30;99.90
17152;DHT22;8691;50.828;4.700;2022-11-11T06:30:35;6.30;99.90
17152;DHT22;8691;50.828;4.700;2022-11-11T06:33:03;6.30;99.90
17152;DHT22;8691;50.828;4.700;2022-11-11T06:35:30;6.30;99.90
17152;DHT22;8691;50.828;4.700;2022-11-11T06:37:57;6.30;99.90
17152;DHT22;8691;50.828;4.700;2022-11-11T06:40:24;6.30;99.90
17152;DHT22;8691;50.828;4.700;2022-11-11T06:42:52;6.30;99.90
17152;DHT22;8691;50.828;4.700;2022-11-11T06:45:19;6.30;99.90
17152;DHT22;8691;50.828;4.700;2022-11-11T06:47:47;6.40;99.90
17152;DHT22;8691;50.828;4.700;2022-11-11T06:50:15;6.40;99.90
17152;DHT22;8691;50.828;4.700;2022-11-11T06:52:43;6.40;99.90
17152;DHT22;8691;50.828;4.700;2022-11-11T06:55:09;6.40;99.90
17152;DHT22;8691;50.828;4.700;2022-11-11T06:57:36;6.40;99.90
17152;DHT22;8691;50.828;4.700;2022-11-11T07:00:03;6.40;99.90
17152;DHT22;8691;50.828;4.700;2022-11-11T07:02:30;6.40;99.90
17152;DHT22;8691;50.828;4.700;2022-11-11T07:04:58;6.50;99.90
17152;DHT22;8691;50.828;4.700;2022-11-11T07:07:25;6.50;99.90
17152;DHT22;8691;50.828;4.700;2022-11-11T07:09:51;6.50;99.90
17152;DHT22;8691;50.828;4.700;2022-11-11T07:12:18;6.50;99.90
17152;DHT22;8691;50.828;4.700;2022-11-11T07:14:45;6.50;99.90
17152;DHT22;8691;50.828;4.700;2022-11-11T07:17:12;6.60;99.90
17152;DHT22;8691;50.828;4.700;2022-11-11T07:19:38;6.60;99.90
17152;DHT22;8691;50.828;4.700;2022-11-11T07:22:05;6.60;99.90
17152;DHT22;8691;50.828;4.700;2022-11-11T07:24:33;6.70;99.90
17152;DHT22;8691;50.828;4.700;2022-11-11T07:27:00;6.70;99.90
17152;DHT22;8691;50.828;4.700;2022-11-11T07:29:26;6.70;99.90
17152;DHT22;8691;50.828;4.700;2022-11-11T07:31:53;6.80;99.90
17152;DHT22;8691;50.828;4.700;2022-11-11T07:34:21;6.90;99.90
17152;DHT22;8691;50.828;4.700;2022-11-11T07:36:48;6.90;99.90
17152;DHT22;8691;50.828;4.700;2022-11-11T07:39:14;7.00;99.90
17152;DHT22;8691;50.828;4.700;2022-11-11T07:41:42;7.10;99.90
17152;DHT22;8691;50.828;4.700;2022-11-11T07:44:09;7.10;99.90
17152;DHT22;8691;50.828;4.700;2022-11-11T07:46:37;7.20;99.90
17152;DHT22;8691;50.828;4.700;2022-11-11T07:49:03;7.20;99.90
17152;DHT22;8691;50.828;4.700;2022-11-11T07:51:30;7.30;99.90
17152;DHT22;8691;50.828;4.700;2022-11-11T07:53:57;7.50;99.90
17152;DHT22;8691;50.828;4.700;2022-11-11T07:56:24;7.80;99.90
17152;DHT22;8691;50.828;4.700;2022-11-11T07:58:51;8.10;99.90
17152;DHT22;8691;50.828;4.700;2022-11-11T08:01:17;8.50;99.90
17152;DHT22;8691;50.828;4.700;2022-11-11T08:03:44;8.80;99.90
17152;DHT22;8691;50.828;4.700;2022-11-11T08:06:17;9.10;99.90
17152;DHT22;8691;50.828;4.700;2022-11-11T08:08:44;9.20;99.90
17152;DHT22;8691;50.828;4.700;2022-11-11T08:11:11;9.50;99.90
17152;DHT22;8691;50.828;4.700;2022-11-11T08:13:38;9.90;99.90
17152;DHT22;8691;50.828;4.700;2022-11-11T08:16:07;10.30;99.90
17152;DHT22;8691;50.828;4.700;2022-11-11T08:18:34;10.80;99.90
17152;DHT22;8691;50.828;4.700;2022-11-11T08:21:02;11.70;99.90
17152;DHT22;8691;50.828;4.700;2022-11-11T08:23:29;11.70;99.90
17152;DHT22;8691;50.828;4.700;2022-11-11T08:26:03;12.20;99.90
17152;DHT22;8691;50.828;4.700;2022-11-11T08:28:28;12.60;99.90
17152;DHT22;8691;50.828;4.700;2022-11-11T08:30:56;13.00;99.90
17152;DHT22;8691;50.828;4.700;2022-11-11T08:33:22;13.00;99.90
17152;DHT22;8691;50.828;4.700;2022-11-11T08:35:48;13.50;99.90
17152;DHT22;8691;50.828;4.700;2022-11-11T08:38:15;13.50;99.90
17152;DHT22;8691;50.828;4.700;2022-11-11T08:40:42;13.60;99.90
17152;DHT22;8691;50.828;4.700;2022-11-11T08:43:09;13.80;99.90
17152;DHT22;8691;50.828;4.700;2022-11-11T08:45:35;13.40;99.90
17152;DHT22;8691;50.828;4.700;2022-11-11T08:48:02;13.50;99.90
17152;DHT22;8691;50.828;4.700;2022-11-11T08:50:29;13.80;99.90
17152;DHT22;8691;50.828;4.700;2022-11-11T08:52:57;14.20;99.90
17152;DHT22;8691;50.828;4.700;2022-11-11T08:55:23;14.20;99.90
17152;DHT22;8691;50.828;4.700;2022-11-11T08:57:57;14.50;99.90
17152;DHT22;8691;50.828;4.700;2022-11-11T09:00:23;14.80;99.90
17152;DHT22;8691;50.828;4.700;2022-11-11T09:02:50;14.90;99.90
17152;DHT22;8691;50.828;4.700;2022-11-11T09:05:17;15.30;99.90
17152;DHT22;8691;50.828;4.700;2022-11-11T09:07:45;15.30;99.90
17152;DHT22;8691;50.828;4.700;2022-11-11T09:10:12;15.30;99.90
17152;DHT22;8691;50.828;4.700;2022-11-11T09:12:38;15.10;99.90
17152;DHT22;8691;50.828;4.700;2022-11-11T09:15:05;15.20;99.90
17152;DHT22;8691;50.828;4.700;2022-11-11T09:17:32;15.30;99.90
17152;DHT22;8691;50.828;4.700;2022-11-11T09:19:59;15.40;99.90
17152;DHT22;8691;50.828;4.700;2022-11-11T09:22:27;15.30;99.90
17152;DHT22;8691;50.828;4.700;2022-11-11T09:24:54;15.30;99.90
17152;DHT22;8691;50.828;4.700;2022-11-11T09:27:21;15.50;99.90
17152;DHT22;8691;50.828;4.700;2022-11-11T09:29:47;15.60;99.90
17152;DHT22;8691;50.828;4.700;2022-11-11T09:32:14;15.50;99.90
17152;DHT22;8691;50.828;4.700;2022-11-11T09:34:41;15.70;99.90
17152;DHT22;8691;50.828;4.700;2022-11-11T09:37:07;15.70;99.90
17152;DHT22;8691;50.828;4.700;2022-11-11T09:39:34;15.70;99.90
17152;DHT22;8691;50.828;4.700;2022-11-11T09:42:13;15.80;99.90
17152;DHT22;8691;50.828;4.700;2022-11-11T09:47:38;16.30;99.90
17152;DHT22;8691;50.828;4.700;2022-11-11T09:49:49;16.50;99.90
17152;DHT22;8691;50.828;4.700;2022-11-11T09:52:53;16.30;99.90
17152;DHT22;8691;50.828;4.700;2022-11-11T09:55:08;16.30;99.90
17152;DHT22;8691;50.828;4.700;2022-11-11T09:57:36;15.90;99.90
17152;DHT22;8691;50.828;4.700;2022-11-11T10:00:02;15.70;99.90
17152;DHT22;8691;50.828;4.700;2022-11-11T10:02:37;15.90;99.90
17152;DHT22;8691;50.828;4.700;2022-11-11T10:05:06;16.00;99.90
17152;DHT22;8691;50.828;4.700;2022-11-11T10:07:35;16.00;99.90
17152;DHT22;8691;50.828;4.700;2022-11-11T10:12:47;16.20;99.90
17152;DHT22;8691;50.828;4.700;2022-11-11T10:15:13;16.40;99.90
17152;DHT22;8691;50.828;4.700;2022-11-11T10:17:52;16.60;99.90
17152;DHT22;8691;50.828;4.700;2022-11-11T10:20:28;16.60;99.90
17152;DHT22;8691;50.828;4.700;2022-11-11T10:22:58;16.60;99.90
17152;DHT22;8691;50.828;4.700;2022-11-11T10:25:22;16.50;99.90
17152;DHT22;8691;50.828;4.700;2022-11-11T10:27:48;16.20;99.90
17152;DHT22;8691;50.828;4.700;2022-11-11T10:30:24;16.00;99.90
17152;DHT22;8691;50.828;4.700;2022-11-11T10:33:02;15.60;99.90
17152;DHT22;8691;50.828;4.700;2022-11-11T10:35:21;15.60;99.90
17152;DHT22;8691;50.828;4.700;2022-11-11T10:37:46;15.50;99.90
17152;DHT22;8691;50.828;4.700;2022-11-11T10:41:02;15.10;99.90
17152;DHT22;8691;50.828;4.700;2022-11-11T10:42:49;14.90;99.90
17152;DHT22;8691;50.828;4.700;2022-11-11T10:47:59;14.60;99.90
17152;DHT22;8691;50.828;4.700;2022-11-11T10:50:34;14.60;99.90
17152;DHT22;8691;50.828;4.700;2022-11-11T10:53:21;14.50;99.90
17152;DHT22;8691;50.828;4.700;2022-11-11T10:55:50;14.40;99.90
17152;DHT22;8691;50.828;4.700;2022-11-11T10:58:30;14.40;99.90
17152;DHT22;8691;50.828;4.700;2022-11-11T11:00:54;14.40;99.90
17152;DHT22;8691;50.828;4.700;2022-11-11T11:03:24;14.50;99.90
17152;DHT22;8691;50.828;4.700;2022-11-11T11:05:58;14.40;99.90
17152;DHT22;8691;50.828;4.700;2022-11-11T11:08:25;14.40;99.90
17152;DHT22;8691;50.828;4.700;2022-11-11T11:11:00;14.50;99.90
17152;DHT22;8691;50.828;4.700;2022-11-11T11:13:33;14.60;99.90
17152;DHT22;8691;50.828;4.700;2022-11-11T11:16:02;14.40;99.90
17152;DHT22;8691;50.828;4.700;2022-11-11T11:18:26;14.40;99.90
17152;DHT22;8691;50.828;4.700;2022-11-11T11:23:44;14.60;99.90
17152;DHT22;8691;50.828;4.700;2022-11-11T11:26:11;14.60;99.90
17152;DHT22;8691;50.828;4.700;2022-11-11T11:28:55;14.70;99.90
17152;DHT22;8691;50.828;4.700;2022-11-11T11:31:36;14.70;99.90
17152;DHT22;8691;50.828;4.700;2022-11-11T11:34:03;14.80;99.90
17152;DHT22;8691;50.828;4.700;2022-11-11T11:36:30;14.80;99.90
17152;DHT22;8691;50.828;4.700;2022-11-11T11:38:57;14.80;99.90
17152;DHT22;8691;50.828;4.700;2022-11-11T11:41:37;14.80;99.90
17152;DHT22;8691;50.828;4.700;2022-11-11T11:44:03;15.00;99.90
17152;DHT22;8691;50.828;4.700;2022-11-11T11:49:13;15.00;99.90
17152;DHT22;8691;50.828;4.700;2022-11-11T11:57:01;14.90;99.90
17152;DHT22;8691;50.828;4.700;2022-11-11T11:59:38;14.90;99.90
17152;DHT22;8691;50.828;4.700;2022-11-11T12:05:00;15.10;99.90
17152;DHT22;8691;50.828;4.700;2022-11-11T12:07:28;15.10;99.90
17152;DHT22;8691;50.828;4.700;2022-11-11T12:10:02;15.30;99.90
17152;DHT22;8691;50.828;4.700;2022-11-11T12:17:43;15.50;99.90
17152;DHT22;8691;50.828;4.700;2022-11-11T12:21:19;15.60;99.90
17152;DHT22;8691;50.828;4.700;2022-11-11T12:23:03;15.70;99.90
17152;DHT22;8691;50.828;4.700;2022-11-11T12:28:25;15.70;99.90
17152;DHT22;8691;50.828;4.700;2022-11-11T12:30:54;15.70;99.90
17152;DHT22;8691;50.828;4.700;2022-11-11T12:36:19;15.70;99.90
17152;DHT22;8691;50.828;4.700;2022-11-11T12:38:49;15.80;99.90
17152;DHT22;8691;50.828;4.700;2022-11-11T12:44:02;15.80;99.90
17152;DHT22;8691;50.828;4.700;2022-11-11T12:51:36;15.90;99.90
17152;DHT22;8691;50.828;4.700;2022-11-11T12:56:52;16.10;99.90
17152;DHT22;8691;50.828;4.700;2022-11-11T12:59:40;16.10;99.90
17152;DHT22;8691;50.828;4.700;2022-11-11T13:08:23;15.90;99.90
17152;DHT22;8691;50.828;4.700;2022-11-11T13:10:54;16.10;99.90
17152;DHT22;8691;50.828;4.700;2022-11-11T13:16:03;16.00;99.90
17152;DHT22;8691;50.828;4.700;2022-11-11T13:18:41;15.80;99.90
17152;DHT22;8691;50.828;4.700;2022-11-11T13:21:05;15.90;99.90
17152;DHT22;8691;50.828;4.700;2022-11-11T13:23:29;15.90;99.90
17152;DHT22;8691;50.828;4.700;2022-11-11T13:25:57;15.80;99.90
17152;DHT22;8691;50.828;4.700;2022-11-11T13:28:31;15.80;99.90
17152;DHT22;8691;50.828;4.700;2022-11-11T13:31:09;15.80;99.90
17152;DHT22;8691;50.828;4.700;2022-11-11T13:33:42;15.70;99.90
17152;DHT22;8691;50.828;4.700;2022-11-11T13:36:08;15.80;99.90
17152;DHT22;8691;50.828;4.700;2022-11-11T13:41:10;15.70;99.90
17152;DHT22;8691;50.828;4.700;2022-11-11T13:43:41;15.60;99.90
17152;DHT22;8691;50.828;4.700;2022-11-11T13:46:06;15.60;99.90
17152;DHT22;8691;50.828;4.700;2022-11-11T13:48:46;15.50;99.90
17152;DHT22;8691;50.828;4.700;2022-11-11T13:51:18;15.40;99.90
17152;DHT22;8691;50.828;4.700;2022-11-11T13:53:40;15.20;99.90
17152;DHT22;8691;50.828;4.700;2022-11-11T13:56:07;15.10;99.90
17152;DHT22;8691;50.828;4.700;2022-11-11T13:58:39;15.00;99.90
17152;DHT22;8691;50.828;4.700;2022-11-11T14:01:05;15.00;99.90
17152;DHT22;8691;50.828;4.700;2022-11-11T14:03:35;15.00;99.90
17152;DHT22;8691;50.828;4.700;2022-11-11T14:13:56;14.80;99.90
17152;DHT22;8691;50.828;4.700;2022-11-11T14:21:56;14.60;99.90
17152;DHT22;8691;50.828;4.700;2022-11-11T14:24:39;14.40;99.90
17152;DHT22;8691;50.828;4.700;2022-11-11T14:29:46;14.30;99.90
17152;DHT22;8691;50.828;4.700;2022-11-11T14:32:25;14.20;99.90
17152;DHT22;8691;50.828;4.700;2022-11-11T14:39:51;13.90;99.90
17152;DHT22;8691;50.828;4.700;2022-11-11T14:45:49;13.70;99.90
17152;DHT22;8691;50.828;4.700;2022-11-11T14:47:33;13.70;99.90
17152;DHT22;8691;50.828;4.700;2022-11-11T14:49:58;13.60;99.90
17152;DHT22;8691;50.828;4.700;2022-11-11T14:52:27;13.50;99.90
17152;DHT22;8691;50.828;4.700;2022-11-11T14:57:59;13.30;99.90
17152;DHT22;8691;50.828;4.700;2022-11-11T15:00:20;13.10;99.90
17152;DHT22;8691;50.828;4.700;2022-11-11T15:03:08;13.10;99.90
17152;DHT22;8691;50.828;4.700;2022-11-11T15:08:13;12.90;99.90
17152;DHT22;8691;50.828;4.700;2022-11-11T15:10:54;12.90;99.90
17152;DHT22;8691;50.828;4.700;2022-11-11T15:13:43;12.80;99.90
17152;DHT22;8691;50.828;4.700;2022-11-11T15:16:09;12.80;99.90
17152;DHT22;8691;50.828;4.700;2022-11-11T15:18:55;12.70;99.90
17152;DHT22;8691;50.828;4.700;2022-11-11T15:21:19;12.50;99.90
17152;DHT22;8691;50.828;4.700;2022-11-11T15:23:48;12.50;99.90
17152;DHT22;8691;50.828;4.700;2022-11-11T15:34:35;12.00;99.90
17152;DHT22;8691;50.828;4.700;2022-11-11T15:37:08;11.90;99.90
17152;DHT22;8691;50.828;4.700;2022-11-11T15:39:36;11.80;99.90
17152;DHT22;8691;50.828;4.700;2022-11-11T15:41:59;11.70;99.90
17152;DHT22;8691;50.828;4.700;2022-11-11T15:44:27;11.60;99.90
17152;DHT22;8691;50.828;4.700;2022-11-11T15:46:53;11.50;99.90
17152;DHT22;8691;50.828;4.700;2022-11-11T15:49:36;11.50;99.90
17152;DHT22;8691;50.828;4.700;2022-11-11T15:52:03;11.40;99.90
17152;DHT22;8691;50.828;4.700;2022-11-11T15:54:31;11.30;99.90
17152;DHT22;8691;50.828;4.700;2022-11-11T15:56:56;11.20;99.90
17152;DHT22;8691;50.828;4.700;2022-11-11T15:59:24;11.10;99.90
17152;DHT22;8691;50.828;4.700;2022-11-11T16:01:53;11.10;99.90
17152;DHT22;8691;50.828;4.700;2022-11-11T16:04:20;11.00;99.90
17152;DHT22;8691;50.828;4.700;2022-11-11T16:06:47;10.80;99.90
17152;DHT22;8691;50.828;4.700;2022-11-11T16:09:16;10.80;99.90
17152;DHT22;8691;50.828;4.700;2022-11-11T16:11:41;10.70;99.90
17152;DHT22;8691;50.828;4.700;2022-11-11T16:14:09;10.70;99.90
17152;DHT22;8691;50.828;4.700;2022-11-11T16:16:35;10.60;99.90
17152;DHT22;8691;50.828;4.700;2022-11-11T16:19:08;10.50;99.90
17152;DHT22;8691;50.828;4.700;2022-11-11T16:21:44;10.40;99.90
17152;DHT22;8691;50.828;4.700;2022-11-11T16:24:22;10.30;99.90
17152;DHT22;8691;50.828;4.700;2022-11-11T16:26:48;10.20;99.90
17152;DHT22;8691;50.828;4.700;2022-11-11T16:29:15;10.10;99.90
17152;DHT22;8691;50.828;4.700;2022-11-11T16:31:43;10.00;99.90
17152;DHT22;8691;50.828;4.700;2022-11-11T16:36:58;9.90;99.90
17152;DHT22;8691;50.828;4.700;2022-11-11T16:39:25;9.90;99.90
17152;DHT22;8691;50.828;4.700;2022-11-11T16:41:52;9.80;99.90
17152;DHT22;8691;50.828;4.700;2022-11-11T16:44:40;9.70;99.90
17152;DHT22;8691;50.828;4.700;2022-11-11T16:47:27;9.70;99.90
17152;DHT22;8691;50.828;4.700;2022-11-11T16:49:39;9.70;99.90
17152;DHT22;8691;50.828;4.700;2022-11-11T16:52:12;9.60;99.90
17152;DHT22;8691;50.828;4.700;2022-11-11T16:54:39;9.60;99.90
17152;DHT22;8691;50.828;4.700;2022-11-11T16:57:06;9.50;99.90
17152;DHT22;8691;50.828;4.700;2022-11-11T16:59:44;9.40;99.90
17152;DHT22;8691;50.828;4.700;2022-11-11T17:02:18;9.40;99.90
17152;DHT22;8691;50.828;4.700;2022-11-11T17:04:55;9.30;99.90
17152;DHT22;8691;50.828;4.700;2022-11-11T17:07:27;9.20;99.90
17152;DHT22;8691;50.828;4.700;2022-11-11T17:09:53;9.10;99.90
17152;DHT22;8691;50.828;4.700;2022-11-11T17:12:28;9.10;99.90
17152;DHT22;8691;50.828;4.700;2022-11-11T17:14:47;9.00;99.90
17152;DHT22;8691;50.828;4.700;2022-11-11T17:17:14;8.90;99.90
17152;DHT22;8691;50.828;4.700;2022-11-11T17:19:41;8.90;99.90
17152;DHT22;8691;50.828;4.700;2022-11-11T17:22:11;8.80;99.90
17152;DHT22;8691;50.828;4.700;2022-11-11T17:24:38;8.80;99.90
17152;DHT22;8691;50.828;4.700;2022-11-11T17:27:04;8.70;99.90
17152;DHT22;8691;50.828;4.700;2022-11-11T17:29:31;8.70;99.90
17152;DHT22;8691;50.828;4.700;2022-11-11T17:31:58;8.70;99.90
17152;DHT22;8691;50.828;4.700;2022-11-11T17:34:24;8.60;99.90
17152;DHT22;8691;50.828;4.700;2022-11-11T17:36:51;8.50;99.90
17152;DHT22;8691;50.828;4.700;2022-11-11T17:39:18;8.50;99.90
17152;DHT22;8691;50.828;4.700;2022-11-11T17:41:45;8.50;99.90
17152;DHT22;8691;50.828;4.700;2022-11-11T17:44:13;8.50;99.90
17152;DHT22;8691;50.828;4.700;2022-11-11T17:46:40;8.50;99.90
17152;DHT22;8691;50.828;4.700;2022-11-11T17:49:06;8.50;99.90